Pendleton, OR (97801)

4:21 PM PDT on April 21, 2015 (GMT -0700)
Sun Ridge Estates | Change Station
CLOSE
Current Station
Personal Weather Station
Location: Pendleton, OR
Elevation: 1210 ft
Nearby Weather Stations

Elev 1210 ft 45.65 °N, 118.79 °W | Updated 1 minute ago

Clear
Clear
78.1 °F
Feels Like 78 °F
N
4.0
Wind Variable Wind from West
Gusts 9.0 mph

Today
High -- | Low -- °F
--% Chance of Precip.
Yesterday
High -- | Low -- °F
Precip. -- in
5:59 AM 7:49 PM
Waxing Crescent, 13% visible
Pressure 29.74 in
Visibility 10.0 miles
Clouds Clear
Heat Index 78 °F
Dew Point 41 °F
Humidity 27%
Rainfall 0.00 in
Snow Depth Not available.
UV 5 out of 12
Pollen 10.90 out of 12
Air Quality Not available.
Flu Activity Regional
METAR KPDT 212253Z 31008KT 10SM CLR 24/04 A2977 RMK AO2 SLP070 T02390039

More Conditions Fewer Conditions

Pressure 29.74 in
Visibility 10.0 miles
Clouds Clear
Heat Index 78 °F
Dew Point 41 °F
Humidity 27%
Rainfall 0.00 in
Snow Depth Not available.
UV 5 out of 12
Pollen 10.90 out of 12
Air Quality Not available.
Flu Activity Regional
METAR KPDT 212253Z 31008KT 10SM CLR 24/04 A2977 RMK AO2 SLP070 T02390039

More Conditions Fewer Conditions

10-Day Weather Forecast

Almanac

Astronomy

Apr. 21, 2015 Rise Set
Actual Time 5:59 AM PDT 7:49 PM PDT
Civil Twilight 5:27 AM PDT 8:20 PM PDT
Nautical Twilight 4:48 AM PDT 8:59 PM PDT
Astronomical Twilight 4:06 AM PDT 9:42 PM PDT
Moon 8:16 AM PDT 11:21 PM PDT
Length of Visible Light 14h 53m
Length of Day
13h 49m
Tomorrow will be 3m 0s longer.
Waxing Crescent, 13% of the Moon is Illuminated
Today
Waxing Crescent
Apr 25
First Quarter
May 3
Full
May 11
Last Quarter
May 18
New

Today's Extremes

State Highs State Lows

Community

WunderPhotos

Upload Photos

1,815,579 photos uploaded!

WunderBlogs® & News

Nearby

Snow Depth

Station Depth Elevation
High Ridge 1 in 4980 ft
County Line 0 in 4800 ft
Madison Butte 0 in 5250 ft
Moss Springs 19 in 5850 ft
Aneroid Lake #2 41 in 7300 ft

Earthquake Activity

City Distance Mag. Time & Date
No recent earthquake activity has been reported nearby.
Minimum magnitude displayed is 2.5.

Coastal Water Temperatures

Place Temperature
No Stations Reporting

Nearby Weather Stations